Time;durP1;ratioP1;P1;durP2;ratioP2;P2;SDS_P1;SDS_P2;PMS_P1;PMS_P2;Temp;Humidity;BMP_temperature;BMP_pressure;BME280_temperature;BME280_humidity;BME280_pressure;Samples;Min_cycle;Max_cycle;Signal;HPM_P1;HPM_P2
2022/01/12 00:02:04;;;;;;;27.60;12.15;;;1.70;91.00;;;;;;4894891;29;20047;-69
2022/01/12 00:04:30;;;;;;;32.78;11.90;;;1.70;90.80;;;;;;4904191;29;20043;-68
2022/01/12 00:06:56;;;;;;;36.97;14.82;;;1.70;90.80;;;;;;4901296;29;20042;-69
2022/01/12 00:09:22;;;;;;;42.45;13.48;;;1.70;90.60;;;;;;4900268;29;20020;-69
2022/01/12 00:11:48;;;;;;;40.97;14.63;;;1.70;90.80;;;;;;4901670;29;20403;-69
2022/01/12 00:14:13;;;;;;;34.45;12.52;;;1.70;90.50;;;;;;4902037;29;20040;-69
2022/01/12 00:16:40;;;;;;;36.65;13.32;;;1.70;90.80;;;;;;4899143;29;20036;-69
2022/01/12 00:19:06;;;;;;;29.70;11.52;;;1.70;90.80;;;;;;4899374;29;20112;-70
2022/01/12 00:21:32;;;;;;;36.92;13.02;;;1.60;90.70;;;;;;4907035;29;20040;-69
2022/01/12 00:23:58;;;;;;;37.35;13.07;;;1.60;91.00;;;;;;4897907;29;20052;-69
2022/01/12 00:34:44;;;;;;;33.47;11.73;;;1.50;90.80;;;;;;4898881;29;20111;-69
2022/01/12 00:37:10;;;;;;;37.53;13.73;;;1.50;91.30;;;;;;4901876;29;20033;-72
2022/01/12 00:39:35;;;;;;;32.05;11.05;;;1.60;91.40;;;;;;4901469;29;20047;-72
2022/01/12 00:42:01;;;;;;;36.33;12.82;;;1.70;91.10;;;;;;4898578;29;20115;-72
2022/01/12 00:44:34;;;;;;;35.25;12.73;;;1.70;90.90;;;;;;4894772;29;20096;-72
2022/01/12 00:47:00;;;;;;;34.20;12.15;;;1.70;90.90;;;;;;4895973;29;20040;-72
2022/01/12 00:49:26;;;;;;;34.65;12.98;;;1.70;90.90;;;;;;4895048;29;20040;-72
2022/01/12 00:51:54;;;;;;;30.98;11.15;;;1.70;90.80;;;;;;4885541;29;20036;-72
2022/01/12 00:54:21;;;;;;;34.38;12.98;;;1.70;90.90;;;;;;4903258;29;20050;-72
2022/01/12 00:56:47;;;;;;;43.85;14.32;;;1.70;90.60;;;;;;4899445;29;20028;-72
2022/01/12 00:59:13;;;;;;;41.03;14.52;;;1.70;90.80;;;;;;4898885;29;20050;-72
2022/01/12 01:01:40;;;;;;;35.50;13.38;;;1.60;90.80;;;;;;4899748;29;20087;-72
2022/01/12 01:04:07;;;;;;;41.53;14.57;;;1.60;90.90;;;;;;4905506;29;20682;-72
2022/01/12 01:06:36;;;;;;;33.72;13.55;;;1.60;91.30;;;;;;4905047;29;20413;-72
2022/01/12 01:09:02;;;;;;;40.30;13.55;;;1.70;91.00;;;;;;4899521;29;20044;-72
2022/01/12 01:11:32;;;;;;;43.42;15.77;;;1.50;90.70;;;;;;4895804;29;20039;-71
2022/01/12 01:14:10;;;;;;;38.72;14.32;;;1.50;91.10;;;;;;4898735;29;20032;-72
2022/01/12 01:27:27;;;;;;;40.38;14.82;;;1.70;91.40;;;;;;4912223;29;20583;-72
2022/01/12 01:29:54;;;;;;;48.00;16.02;;;1.70;91.40;;;;;;4901719;29;20048;-72
2022/01/12 01:32:21;;;;;;;41.70;15.40;;;1.70;91.30;;;;;;4896999;29;20056;-72
2022/01/12 01:34:48;;;;;;;50.78;16.75;;;1.60;91.30;;;;;;4902703;29;20483;-72
2022/01/12 01:37:17;;;;;;;45.00;15.50;;;1.60;91.40;;;;;;4895981;29;20535;-72
2022/01/12 01:39:45;;;;;;;51.03;17.88;;;1.70;91.50;;;;;;4901277;29;20024;-72
2022/01/12 01:42:19;;;;;;;44.38;15.65;;;1.70;91.30;;;;;;4905232;29;20102;-71
2022/01/12 01:55:34;;;;;;;45.40;16.33;;;1.70;91.30;;;;;;4901405;29;20045;-72
2022/01/12 01:58:00;;;;;;;44.08;16.45;;;1.70;91.40;;;;;;4902165;29;20036;-72
2022/01/12 02:00:28;;;;;;;41.33;15.18;;;1.80;91.20;;;;;;4902510;29;20450;-72
2022/01/12 02:03:01;;;;;;;42.70;15.52;;;1.80;91.30;;;;;;4893157;29;20036;-72
2022/01/12 02:05:41;;;;;;;46.42;16.90;;;1.80;91.50;;;;;;4904926;29;20027;-72
2022/01/12 02:08:08;;;;;;;47.58;16.52;;;1.80;91.10;;;;;;4895435;29;20084;-72
2022/01/12 02:10:40;;;;;;;54.00;18.88;;;1.90;91.00;;;;;;4893142;29;20036;-72
2022/01/12 02:13:06;;;;;;;48.00;16.40;;;1.80;91.00;;;;;;4896048;29;20460;-72
2022/01/12 02:15:32;;;;;;;48.13;17.77;;;1.80;91.20;;;;;;4894334;29;20037;-72
2022/01/12 02:40:11;;;;;;;45.33;16.70;;;1.90;91.20;;;;;;4896273;29;20036;-73
2022/01/12 02:42:41;;;;;;;47.05;16.80;;;1.90;91.40;;;;;;4895827;29;20028;-73
2022/01/12 02:55:52;;;;;;;52.90;18.25;;;2.00;91.10;;;;;;4892940;29;20407;-72
2022/01/12 02:58:18;;;;;;;52.60;18.90;;;2.00;91.10;;;;;;4902143;29;20032;-72
2022/01/12 03:01:51;;;;;;;51.80;17.30;;;2.00;90.80;;;;;;4900559;29;20040;-72
2022/01/12 03:03:37;;;;;;;52.17;17.33;;;2.00;91.00;;;;;;4897503;29;20036;-72
2022/01/12 03:06:06;;;;;;;51.63;18.13;;;1.90;90.80;;;;;;4902131;29;20055;-73
2022/01/12 03:08:37;;;;;;;50.08;17.38;;;2.00;90.80;;;;;;4899204;29;20396;-72
2022/01/12 03:11:08;;;;;;;53.38;17.73;;;1.90;90.90;;;;;;4895359;29;20184;-72
2022/01/12 03:13:35;;;;;;;48.78;16.02;;;1.80;90.90;;;;;;4895036;29;20040;-72
2022/01/12 03:16:11;;;;;;;52.58;17.08;;;1.80;91.20;;;;;;4893539;29;20090;-72
2022/01/12 03:18:37;;;;;;;48.63;17.42;;;1.70;91.50;;;;;;4898499;29;20040;-73
2022/01/12 03:21:04;;;;;;;45.65;15.25;;;1.70;91.50;;;;;;4899056;29;20044;-72
2022/01/12 03:23:31;;;;;;;45.47;16.13;;;1.80;91.70;;;;;;4895273;29;20035;-72
2022/01/12 03:25:57;;;;;;;52.63;17.88;;;1.80;91.60;;;;;;4901031;29;20083;-72
2022/01/12 03:28:23;;;;;;;53.22;18.52;;;1.90;91.60;;;;;;4894758;29;20032;-72
2022/01/12 03:31:03;;;;;;;49.65;17.45;;;2.00;91.30;;;;;;4913122;29;20067;-72
2022/01/12 03:33:37;;;;;;;45.65;16.95;;;2.00;91.00;;;;;;4917187;29;20032;-72
2022/01/12 03:36:25;;;;;;;44.83;16.13;;;1.90;91.00;;;;;;4895760;29;20048;-72
2022/01/12 03:38:56;;;;;;;46.05;14.95;;;1.80;91.30;;;;;;4904012;29;20047;-72
2022/01/12 03:41:24;;;;;;;45.22;16.58;;;1.80;91.60;;;;;;4901241;29;20044;-72
2022/01/12 03:43:50;;;;;;;48.53;16.08;;;1.90;91.40;;;;;;4903223;29;20782;-72
2022/01/12 03:46:20;;;;;;;48.60;16.30;;;1.90;91.50;;;;;;4911681;29;20107;-72
2022/01/12 03:48:45;;;;;;;41.58;15.27;;;1.90;91.50;;;;;;4903428;29;20051;-73
2022/01/12 03:51:11;;;;;;;45.92;15.73;;;1.90;91.50;;;;;;4898861;29;20075;-72
2022/01/12 03:53:37;;;;;;;39.65;14.23;;;2.00;91.10;;;;;;4900352;29;20055;-72
2022/01/12 03:56:03;;;;;;;45.67;14.48;;;2.00;91.30;;;;;;4897494;29;20427;-72
2022/01/12 03:58:30;;;;;;;40.38;14.35;;;2.00;91.10;;;;;;4880708;29;20036;-72
2022/01/12 04:00:56;;;;;;;37.00;14.63;;;2.00;91.20;;;;;;4886612;29;20042;-73
2022/01/12 04:03:25;;;;;;;35.42;13.48;;;2.00;91.30;;;;;;4898852;29;20028;-72
2022/01/12 04:08:36;;;;;;;36.10;12.25;;;2.00;91.40;;;;;;4900837;29;20770;-72
2022/01/12 04:11:02;;;;;;;37.67;12.95;;;2.00;91.40;;;;;;4902921;29;20052;-73
2022/01/12 04:13:31;;;;;;;34.35;12.60;;;2.10;91.40;;;;;;4904342;29;21007;-73
2022/01/12 04:16:05;;;;;;;34.92;14.05;;;2.10;91.50;;;;;;4887552;29;20037;-72
2022/01/12 04:18:31;;;;;;;45.22;15.73;;;2.10;91.50;;;;;;4900848;29;20028;-72
2022/01/12 04:21:00;;;;;;;43.17;15.48;;;2.10;91.20;;;;;;4900791;29;20404;-72
2022/01/12 04:23:26;;;;;;;44.05;15.30;;;2.10;91.10;;;;;;4908692;29;20455;-72
2022/01/12 04:25:56;;;;;;;51.42;15.68;;;2.10;91.10;;;;;;4905067;29;20040;-72
2022/01/12 04:28:23;;;;;;;51.22;15.65;;;2.10;91.20;;;;;;4903183;29;20041;-72
2022/01/12 04:30:51;;;;;;;49.40;16.15;;;2.10;91.20;;;;;;4908440;29;20589;-72
2022/01/12 04:33:18;;;;;;;39.88;14.18;;;2.10;91.10;;;;;;4900373;29;20037;-72
2022/01/12 04:35:48;;;;;;;35.38;13.05;;;2.10;91.00;;;;;;4899434;29;20042;-72
2022/01/12 04:38:15;;;;;;;41.85;13.73;;;2.10;91.20;;;;;;4898852;29;20842;-72
2022/01/12 04:40:42;;;;;;;38.80;14.95;;;2.20;91.40;;;;;;4895889;29;20112;-72
2022/01/12 04:43:09;;;;;;;47.08;15.50;;;2.10;91.20;;;;;;4904503;29;20524;-72
2022/01/12 04:45:46;;;;;;;42.08;13.88;;;2.10;91.30;;;;;;4909050;29;20095;-71
2022/01/12 04:50:42;;;;;;;40.53;14.13;;;2.20;91.20;;;;;;4897151;29;20028;-72
2022/01/12 04:53:10;;;;;;;43.13;14.75;;;2.10;91.30;;;;;;4893395;29;20047;-72
2022/01/12 04:55:36;;;;;;;41.83;13.73;;;2.20;91.10;;;;;;4893880;29;20087;-73
2022/01/12 04:58:02;;;;;;;38.05;13.82;;;2.20;90.70;;;;;;4896479;29;20063;-72
2022/01/12 05:00:30;;;;;;;38.15;13.20;;;2.10;90.90;;;;;;4902246;29;20036;-73
2022/01/12 05:13:41;;;;;;;38.58;14.20;;;2.30;91.20;;;;;;4903935;29;20027;-72
2022/01/12 05:16:10;;;;;;;38.67;12.40;;;2.30;91.20;;;;;;4895659;29;20063;-72
2022/01/12 05:18:36;;;;;;;38.38;13.63;;;2.30;91.20;;;;;;4883128;29;20511;-72
2022/01/12 05:21:06;;;;;;;36.63;13.50;;;2.30;91.10;;;;;;4897078;29;20075;-72
2022/01/12 05:23:33;;;;;;;38.42;12.52;;;2.30;91.10;;;;;;4894632;29;20029;-72
2022/01/12 05:25:59;;;;;;;38.47;13.98;;;2.40;91.20;;;;;;4895389;29;20111;-72
2022/01/12 05:28:26;;;;;;;40.65;12.43;;;2.30;91.00;;;;;;4898698;29;20032;-72
2022/01/12 05:30:54;;;;;;;39.92;12.80;;;2.30;91.10;;;;;;4896414;29;20048;-73
2022/01/12 05:33:25;;;;;;;38.70;14.35;;;2.30;91.30;;;;;;4903538;29;20040;-72
2022/01/12 05:35:54;;;;;;;34.80;13.40;;;2.40;91.20;;;;;;4897875;29;20040;-72
2022/01/12 05:38:20;;;;;;;38.53;13.15;;;2.30;91.10;;;;;;4888326;29;20119;-72
2022/01/12 05:40:49;;;;;;;41.67;15.35;;;2.40;91.10;;;;;;4886582;29;20036;-72
2022/01/12 05:43:24;;;;;;;37.10;13.15;;;2.40;91.00;;;;;;4901612;29;20474;-72
2022/01/12 05:45:52;;;;;;;34.13;12.63;;;2.40;91.00;;;;;;4898527;29;20037;-72
2022/01/12 05:50:46;;;;;;;36.38;12.90;;;2.40;91.10;;;;;;4901334;29;20120;-72
2022/01/12 05:53:17;;;;;;;40.15;13.23;;;2.50;91.00;;;;;;4896099;29;20036;-72
2022/01/12 05:55:44;;;;;;;34.75;12.27;;;2.40;90.80;;;;;;4900997;29;20047;-72
2022/01/12 05:58:11;;;;;;;36.13;11.88;;;2.40;91.00;;;;;;4903458;29;20036;-72
2022/01/12 06:00:37;;;;;;;37.33;13.15;;;2.30;90.90;;;;;;4896630;29;20032;-72
2022/01/12 06:03:03;;;;;;;36.88;12.73;;;2.30;91.00;;;;;;4897778;29;20047;-73
2022/01/12 06:05:29;;;;;;;31.45;12.02;;;2.30;91.20;;;;;;4892921;29;20032;-72
2022/01/12 06:07:56;;;;;;;35.13;12.48;;;2.20;91.10;;;;;;4896520;29;20039;-72
2022/01/12 06:10:23;;;;;;;37.13;12.98;;;2.20;91.20;;;;;;4897717;29;20041;-72
2022/01/12 06:12:50;;;;;;;37.45;12.95;;;2.10;91.40;;;;;;4901400;29;20579;-72
2022/01/12 06:15:16;;;;;;;40.50;13.63;;;2.10;91.50;;;;;;4894448;29;20044;-71
2022/01/12 06:17:42;;;;;;;35.75;12.32;;;2.10;91.50;;;;;;4897428;29;20050;-72
2022/01/12 06:20:08;;;;;;;42.15;13.13;;;2.00;91.80;;;;;;4897106;29;20579;-72
2022/01/12 06:22:53;;;;;;;37.40;13.05;;;1.90;91.90;;;;;;4901057;29;20043;-72
2022/01/12 06:25:19;;;;;;;37.88;13.43;;;1.90;91.80;;;;;;4901861;29;20091;-72
2022/01/12 06:33:20;;;;;;;41.03;12.88;;;1.90;91.70;;;;;;4900418;29;20027;-72
2022/01/12 06:35:46;;;;;;;43.60;14.27;;;1.80;91.60;;;;;;4898061;29;20032;-72
2022/01/12 06:38:12;;;;;;;35.92;12.18;;;1.80;91.60;;;;;;4892945;29;20055;-71
2022/01/12 06:40:37;;;;;;;31.48;12.32;;;1.80;91.50;;;;;;4900344;29;20031;-72
2022/01/12 06:43:03;;;;;;;36.97;11.63;;;1.80;91.50;;;;;;4899360;29;20025;-72
2022/01/12 06:45:30;;;;;;;44.50;14.30;;;1.80;91.50;;;;;;4896613;29;20131;-72
2022/01/12 06:47:56;;;;;;;40.58;13.77;;;1.80;91.60;;;;;;4898368;29;20035;-72
2022/01/12 06:50:22;;;;;;;43.08;14.13;;;1.80;91.50;;;;;;4900033;29;20025;-72
2022/01/12 06:52:48;;;;;;;45.13;15.13;;;1.80;91.60;;;;;;4887713;29;20096;-72
2022/01/12 06:55:14;;;;;;;39.30;13.65;;;1.80;91.70;;;;;;4882042;29;20659;-72
2022/01/12 06:57:40;;;;;;;44.47;14.02;;;1.90;91.80;;;;;;4907900;29;20058;-71
2022/01/12 07:00:08;;;;;;;45.25;14.70;;;1.90;91.90;;;;;;4901402;29;20143;-72
2022/01/12 07:02:35;;;;;;;40.08;14.35;;;1.90;92.10;;;;;;4886914;29;20158;-71
2022/01/12 07:05:02;;;;;;;50.97;14.85;;;2.00;92.10;;;;;;4906755;29;20119;-71
2022/01/12 07:07:28;;;;;;;42.40;12.93;;;2.00;92.00;;;;;;4903140;29;20131;-76
2022/01/12 07:09:58;;;;;;;41.03;12.32;;;2.10;91.70;;;;;;4899101;29;20036;-72
2022/01/12 07:12:26;;;;;;;47.53;14.73;;;2.20;91.40;;;;;;4901644;29;20124;-73
2022/01/12 07:14:52;;;;;;;43.17;13.98;;;2.20;91.60;;;;;;4896908;29;20124;-70
2022/01/12 07:17:18;;;;;;;40.42;13.98;;;2.20;91.70;;;;;;4902784;29;20115;-70
2022/01/12 07:19:44;;;;;;;48.40;14.75;;;2.10;91.80;;;;;;4901569;29;20040;-68
2022/01/12 07:22:10;;;;;;;47.85;15.20;;;2.10;92.00;;;;;;4904076;29;20127;-69
2022/01/12 07:24:35;;;;;;;47.45;14.15;;;2.20;92.10;;;;;;4902056;29;20042;-73
2022/01/12 07:27:02;;;;;;;48.65;16.00;;;2.20;92.00;;;;;;4904580;29;20036;-70
2022/01/12 07:29:27;;;;;;;40.42;13.75;;;2.30;92.00;;;;;;4895279;29;20129;-70
2022/01/12 07:31:53;;;;;;;42.45;14.00;;;2.30;92.00;;;;;;4904662;29;20048;-69
2022/01/12 07:34:19;;;;;;;50.25;15.85;;;2.40;91.90;;;;;;4898455;29;20041;-70
2022/01/12 07:36:45;;;;;;;44.55;14.80;;;2.40;91.80;;;;;;4897400;29;20919;-69
2022/01/12 07:39:10;;;;;;;58.70;20.63;;;2.50;91.60;;;;;;4897625;29;20032;-65
2022/01/12 07:41:36;;;;;;;48.85;15.25;;;2.50;91.60;;;;;;4903990;29;20476;-67
2022/01/12 07:44:02;;;;;;;51.20;15.65;;;2.60;91.30;;;;;;4902924;29;20043;-70
2022/01/12 07:46:29;;;;;;;42.53;14.13;;;2.60;91.30;;;;;;4902819;29;20142;-72
2022/01/12 07:48:55;;;;;;;46.60;14.82;;;2.70;91.30;;;;;;4905676;29;20043;-66
2022/01/12 07:51:21;;;;;;;37.92;13.27;;;2.70;91.20;;;;;;4900336;29;20040;-66
2022/01/12 07:53:47;;;;;;;36.75;12.90;;;2.70;91.20;;;;;;4899682;29;20071;-67
2022/01/12 07:56:12;;;;;;;40.53;13.40;;;2.70;91.30;;;;;;4895545;29;20064;-70
2022/01/12 07:58:38;;;;;;;47.20;15.07;;;2.80;91.20;;;;;;4899692;29;20032;-72
2022/01/12 08:01:04;;;;;;;39.38;15.07;;;2.90;91.00;;;;;;4897551;29;20043;-73
2022/01/12 08:03:30;;;;;;;41.92;13.43;;;3.00;91.00;;;;;;4901447;29;20830;-70
2022/01/12 08:05:57;;;;;;;40.67;14.90;;;3.00;91.00;;;;;;4899306;29;20032;-71
2022/01/12 08:08:23;;;;;;;39.38;13.70;;;3.10;90.90;;;;;;4904947;29;20058;-71
2022/01/12 08:10:53;;;;;;;40.20;13.75;;;3.20;90.80;;;;;;4903064;29;20040;-71
2022/01/12 08:13:19;;;;;;;41.60;13.98;;;3.20;90.70;;;;;;4896747;29;20078;-71
2022/01/12 08:15:44;;;;;;;38.15;14.30;;;3.30;90.60;;;;;;4898522;29;20035;-71
2022/01/12 08:18:10;;;;;;;37.72;13.80;;;3.30;90.50;;;;;;4900585;29;20119;-70
2022/01/12 08:20:36;;;;;;;34.97;11.73;;;3.40;90.60;;;;;;4903661;29;20090;-71
2022/01/12 08:23:01;;;;;;;38.55;12.98;;;3.50;90.50;;;;;;4900557;29;20059;-70
2022/01/12 08:25:27;;;;;;;35.50;12.13;;;3.50;90.30;;;;;;4891877;29;20253;-72
2022/01/12 08:27:53;;;;;;;43.70;14.50;;;3.60;90.30;;;;;;4897831;29;20135;-72
2022/01/12 08:30:27;;;;;;;39.50;14.10;;;3.60;90.10;;;;;;4895443;29;20048;-73
2022/01/12 08:32:53;;;;;;;37.75;14.05;;;3.70;90.20;;;;;;4899778;29;20518;-72
2022/01/12 08:35:19;;;;;;;37.92;14.15;;;3.70;90.20;;;;;;4897833;29;20860;-72
2022/01/12 08:37:45;;;;;;;46.47;17.08;;;3.70;90.10;;;;;;4906226;29;20035;-72
2022/01/12 08:40:13;;;;;;;42.15;15.23;;;3.80;90.00;;;;;;4906072;29;20090;-71
2022/01/12 08:42:39;;;;;;;45.95;16.95;;;3.90;89.80;;;;;;4899605;29;20155;-70
2022/01/12 08:45:06;;;;;;;55.33;21.83;;;3.90;89.80;;;;;;4898042;29;20114;-72
2022/01/12 08:47:32;;;;;;;52.75;20.20;;;4.00;89.80;;;;;;4903528;29;20503;-71
2022/01/12 08:49:58;;;;;;;48.38;17.00;;;4.10;89.60;;;;;;4895168;29;20040;-71
2022/01/12 08:52:25;;;;;;;39.78;14.85;;;4.10;89.20;;;;;;4900815;29;20036;-69
2022/01/12 08:54:52;;;;;;;39.67;14.02;;;4.20;88.90;;;;;;4904220;29;20044;-70
2022/01/12 08:57:18;;;;;;;39.03;15.13;;;4.20;88.80;;;;;;4904754;29;20055;-69
2022/01/12 08:59:44;;;;;;;37.63;13.57;;;4.20;88.80;;;;;;4904985;29;20449;-69
2022/01/12 09:02:13;;;;;;;35.55;12.75;;;4.30;88.80;;;;;;4903735;29;20039;-69
2022/01/12 09:04:39;;;;;;;35.90;12.98;;;4.30;88.70;;;;;;4896413;29;20059;-69
2022/01/12 09:07:05;;;;;;;31.23;12.93;;;4.40;88.50;;;;;;4896544;29;20044;-69
2022/01/12 09:09:30;;;;;;;31.85;12.00;;;4.40;88.40;;;;;;4895207;29;20116;-69
2022/01/12 09:11:56;;;;;;;29.02;11.32;;;4.40;88.20;;;;;;4900743;29;20051;-70
2022/01/12 09:14:22;;;;;;;29.80;12.40;;;4.50;88.10;;;;;;4891661;29;20035;-70
2022/01/12 09:16:56;;;;;;;36.00;13.95;;;4.50;88.40;;;;;;4887935;29;20036;-70
2022/01/12 09:19:22;;;;;;;37.17;13.90;;;4.50;88.50;;;;;;4889087;29;20167;-70
2022/01/12 09:21:48;;;;;;;36.25;14.15;;;4.60;88.70;;;;;;4897785;29;20040;-70
2022/01/12 09:24:14;;;;;;;37.60;13.45;;;4.60;89.40;;;;;;4906107;29;20042;-68
2022/01/12 09:26:40;;;;;;;35.20;12.15;;;4.60;88.80;;;;;;4901827;29;20084;-70
2022/01/12 09:29:06;;;;;;;29.92;11.75;;;4.70;89.00;;;;;;4899980;29;20052;-71
2022/01/12 09:31:32;;;;;;;23.38;10.07;;;4.80;89.70;;;;;;4895328;29;20952;-73
2022/01/12 09:33:58;;;;;;;21.80;9.70;;;4.90;89.00;;;;;;4891007;29;20041;-71
2022/01/12 09:36:24;;;;;;;20.33;8.95;;;4.90;89.00;;;;;;4899027;29;20072;-71
2022/01/12 09:38:49;;;;;;;21.25;9.32;;;4.90;89.20;;;;;;4895834;29;20776;-70
2022/01/12 09:41:15;;;;;;;20.80;9.18;;;5.00;89.30;;;;;;4891552;29;20487;-70
2022/01/12 09:43:42;;;;;;;25.65;10.88;;;5.00;89.30;;;;;;4891700;29;20143;-69
2022/01/12 09:46:09;;;;;;;25.42;9.65;;;5.10;89.20;;;;;;4895977;29;20039;-69
2022/01/12 09:48:36;;;;;;;25.27;10.68;;;5.20;89.20;;;;;;4891560;29;20128;-69
2022/01/12 09:51:04;;;;;;;24.52;10.98;;;5.20;89.00;;;;;;4896090;29;20055;-72
2022/01/12 09:53:32;;;;;;;30.55;13.70;;;5.30;89.20;;;;;;4897548;29;20040;-70
2022/01/12 09:55:58;;;;;;;40.10;18.17;;;5.40;88.70;;;;;;4893494;29;20059;-70
2022/01/12 09:58:24;;;;;;;55.88;24.08;;;5.30;88.40;;;;;;4892762;29;20033;-71
2022/01/12 10:00:57;;;;;;;50.00;20.58;;;5.40;88.40;;;;;;4892258;29;20044;-69
2022/01/12 10:03:23;;;;;;;40.40;17.52;;;5.40;88.10;;;;;;4893917;29;20036;-69
2022/01/12 10:05:49;;;;;;;24.67;11.25;;;5.40;87.90;;;;;;4893826;29;20048;-71
2022/01/12 10:08:16;;;;;;;24.33;10.77;;;5.40;87.60;;;;;;4892457;29;20033;-70
2022/01/12 10:10:59;;;;;;;27.52;10.75;;;5.40;87.40;;;;;;4900499;29;20036;-71
2022/01/12 10:13:25;;;;;;;26.85;10.55;;;5.50;87.50;;;;;;4892971;29;20120;-70
2022/01/12 10:15:53;;;;;;;21.92;10.30;;;5.50;87.00;;;;;;4902100;29;20167;-70
2022/01/12 10:18:19;;;;;;;26.13;10.35;;;5.50;87.10;;;;;;4893758;29;20485;-70
2022/01/12 10:20:47;;;;;;;21.77;9.68;;;5.60;87.20;;;;;;4905343;29;20131;-70
2022/01/12 10:23:15;;;;;;;20.65;8.50;;;5.60;87.20;;;;;;4892841;29;20834;-70
2022/01/12 10:25:48;;;;;;;19.67;9.10;;;5.60;87.20;;;;;;4891779;29;20135;-70
2022/01/12 10:28:20;;;;;;;21.58;9.10;;;5.60;87.20;;;;;;4896261;29;20036;-69
2022/01/12 10:30:57;;;;;;;22.58;9.10;;;5.60;87.20;;;;;;4895663;29;20060;-71
2022/01/12 10:33:29;;;;;;;24.55;9.50;;;5.70;87.20;;;;;;4888311;29;20032;-69
2022/01/12 10:36:07;;;;;;;20.42;9.02;;;5.70;87.00;;;;;;4891897;29;20029;-70
2022/01/12 10:38:33;;;;;;;23.25;9.20;;;5.70;86.80;;;;;;4898964;29;20118;-71
2022/01/12 10:41:02;;;;;;;22.25;9.70;;;5.70;86.40;;;;;;4890995;29;20951;-69
2022/01/12 10:43:39;;;;;;;20.58;9.43;;;5.70;86.40;;;;;;4892992;29;20043;-69
2022/01/12 10:46:15;;;;;;;19.20;9.23;;;5.70;86.50;;;;;;4896525;29;20036;-69
2022/01/12 10:48:59;;;;;;;27.92;10.00;;;5.80;86.60;;;;;;4900805;29;20023;-67
2022/01/12 10:51:28;;;;;;;24.23;9.68;;;5.80;86.70;;;;;;4900124;29;20068;-69
2022/01/12 10:54:03;;;;;;;25.98;10.20;;;5.80;86.60;;;;;;4893149;29;20466;-68
2022/01/12 10:56:29;;;;;;;26.57;10.50;;;5.80;86.30;;;;;;4890563;29;20032;-70
2022/01/12 10:58:57;;;;;;;25.92;10.10;;;5.80;86.40;;;;;;4894655;29;20787;-68
2022/01/12 11:01:28;;;;;;;26.55;11.02;;;5.90;86.50;;;;;;4906721;29;20119;-70
2022/01/12 11:03:55;;;;;;;23.48;11.23;;;5.90;86.40;;;;;;4900306;29;20034;-70
2022/01/12 11:06:21;;;;;;;23.95;10.07;;;5.90;86.40;;;;;;4897338;29;20071;-70
2022/01/12 11:08:49;;;;;;;27.35;10.25;;;5.90;86.90;;;;;;4895438;29;20063;-72
2022/01/12 11:11:20;;;;;;;21.45;10.05;;;6.00;86.80;;;;;;4892468;29;20036;-70
2022/01/12 11:13:52;;;;;;;22.20;9.77;;;6.00;86.60;;;;;;4895639;29;20115;-70
2022/01/12 11:16:26;;;;;;;23.02;10.60;;;6.00;86.60;;;;;;4858079;29;1061538;-69
2022/01/12 11:18:54;;;;;;;23.05;10.00;;;6.00;86.20;;;;;;4898066;29;20471;-71
2022/01/12 11:21:36;;;;;;;24.95;10.93;;;6.00;86.70;;;;;;4898193;29;20139;-71
2022/01/12 11:24:04;;;;;;;23.00;10.10;;;5.90;86.60;;;;;;4914647;29;20036;-70
2022/01/12 11:26:32;;;;;;;25.90;11.05;;;5.90;86.90;;;;;;4899275;29;20037;-70
2022/01/12 11:28:58;;;;;;;26.85;12.15;;;5.90;87.10;;;;;;4907390;29;20047;-71
2022/01/12 11:31:29;;;;;;;27.95;12.00;;;5.90;87.20;;;;;;4897937;29;20070;-70
2022/01/12 11:33:55;;;;;;;29.25;12.23;;;5.90;87.30;;;;;;4893596;29;20763;-70
2022/01/12 11:36:24;;;;;;;29.80;12.23;;;5.90;87.50;;;;;;4894771;29;20036;-70
2022/01/12 11:38:59;;;;;;;28.55;11.95;;;5.80;87.30;;;;;;4893634;29;20047;-70
2022/01/12 11:41:28;;;;;;;32.17;11.75;;;5.80;87.80;;;;;;4894734;29;20039;-69
2022/01/12 11:44:19;;;;;;;23.25;10.48;;;5.80;87.90;;;;;;4891306;29;20033;-71
2022/01/12 11:46:54;;;;;;;25.58;11.73;;;5.90;88.30;;;;;;4900295;29;20389;-70
2022/01/12 11:49:31;;;;;;;29.30;11.90;;;5.90;88.50;;;;;;4891471;29;20048;-69
2022/01/12 11:52:12;;;;;;;29.65;10.48;;;5.90;88.60;;;;;;4892579;29;20028;-68
2022/01/12 11:54:39;;;;;;;23.13;10.02;;;5.90;88.40;;;;;;4889481;29;20032;-70
2022/01/12 11:57:07;;;;;;;27.60;11.18;;;5.90;88.20;;;;;;4899832;29;20472;-70
2022/01/12 11:59:51;;;;;;;24.00;10.80;;;6.00;88.30;;;;;;4899001;29;20068;-74
2022/01/12 12:02:19;;;;;;;28.75;12.82;;;6.00;88.30;;;;;;4912829;29;20047;-73
2022/01/12 12:04:57;;;;;;;29.33;12.13;;;6.00;88.20;;;;;;4904527;29;20351;-75
2022/01/12 12:07:25;;;;;;;33.58;12.95;;;6.00;88.30;;;;;;4897893;29;20084;-78
2022/01/12 12:09:54;;;;;;;29.98;11.05;;;6.00;88.60;;;;;;4904954;29;20142;-73
2022/01/12 12:12:31;;;;;;;31.42;12.70;;;6.00;88.70;;;;;;4896966;29;20662;-71
2022/01/12 12:14:59;;;;;;;28.90;11.73;;;6.10;88.70;;;;;;4891969;29;20072;-71
2022/01/12 12:17:27;;;;;;;30.20;12.77;;;6.10;88.60;;;;;;4893483;29;20041;-73
2022/01/12 12:19:54;;;;;;;27.98;12.20;;;6.10;88.80;;;;;;4890978;29;20043;-74
2022/01/12 12:22:28;;;;;;;31.08;12.07;;;6.20;88.80;;;;;;4894307;29;20052;-65
2022/01/12 12:24:57;;;;;;;28.60;11.18;;;6.20;88.60;;;;;;4891313;29;20046;-71
2022/01/12 12:27:25;;;;;;;27.45;10.55;;;6.30;88.60;;;;;;4897964;29;20111;-74
2022/01/12 12:29:52;;;;;;;26.98;11.55;;;6.20;88.40;;;;;;4891634;29;20115;-69
2022/01/12 12:32:35;;;;;;;26.38;11.85;;;6.30;88.70;;;;;;4890938;29;20083;-68
2022/01/12 12:35:08;;;;;;;28.85;11.88;;;6.30;88.30;;;;;;4890782;29;20058;-68
2022/01/12 12:37:37;;;;;;;27.98;12.73;;;6.30;88.40;;;;;;4900077;29;20082;-69
2022/01/12 12:40:28;;;;;;;28.10;12.57;;;6.30;88.40;;;;;;4891708;29;20068;-67
2022/01/12 12:43:05;;;;;;;27.15;12.10;;;6.30;89.20;;;;;;4905607;29;20102;-68
2022/01/12 12:45:57;;;;;;;24.40;10.57;;;6.30;88.50;;;;;;4898943;29;20043;-69
2022/01/12 12:48:26;;;;;;;23.50;11.32;;;6.30;88.60;;;;;;4892955;29;20776;-71
2022/01/12 12:51:03;;;;;;;27.00;11.25;;;6.30;88.50;;;;;;4896812;29;20047;-68
2022/01/12 12:53:34;;;;;;;27.75;11.95;;;6.30;88.70;;;;;;4897817;29;20115;-63
2022/01/12 12:56:00;;;;;;;25.55;12.35;;;6.30;88.60;;;;;;4897381;29;20040;-61
2022/01/12 12:58:27;;;;;;;26.10;11.23;;;6.30;88.80;;;;;;4902915;29;20177;-65
2022/01/12 13:01:03;;;;;;;28.30;11.65;;;6.30;89.00;;;;;;4901660;29;20634;-62
2022/01/12 13:03:29;;;;;;;29.92;12.73;;;6.30;89.00;;;;;;4901101;29;20485;-69
2022/01/12 13:05:54;;;;;;;28.48;12.32;;;6.30;89.20;;;;;;4901103;29;20044;-63
2022/01/12 13:08:20;;;;;;;28.38;11.38;;;6.30;89.40;;;;;;4901176;29;20040;-63
2022/01/12 13:10:46;;;;;;;31.60;12.32;;;6.30;89.70;;;;;;4905531;29;20031;-66
2022/01/12 13:13:12;;;;;;;30.88;13.13;;;6.30;89.60;;;;;;4906878;29;20044;-64
2022/01/12 13:15:43;;;;;;;29.45;13.60;;;6.40;89.70;;;;;;4894067;29;20028;-64
2022/01/12 13:18:17;;;;;;;28.27;11.95;;;6.40;89.70;;;;;;4893806;29;20463;-63
2022/01/12 13:23:31;;;;;;;;;;;6.40;89.60;;;;;;4899378;29;20043;-59
2022/01/12 13:26:07;;;;;;;36.10;15.43;;;6.50;89.60;;;;;;4891731;29;19998;-65
2022/01/12 13:28:37;;;;;;;35.25;13.77;;;6.50;89.60;;;;;;4889590;29;20048;-66
2022/01/12 13:31:07;;;;;;;32.40;13.05;;;6.40;89.50;;;;;;4886604;29;20153;-66
2022/01/12 13:33:36;;;;;;;31.48;13.02;;;6.40;89.40;;;;;;4888991;29;20300;-66
2022/01/12 13:36:14;;;;;;;30.58;13.02;;;6.40;89.60;;;;;;4899291;29;20036;-66
2022/01/12 13:38:41;;;;;;;30.58;12.77;;;6.40;89.80;;;;;;4919324;29;20095;-66
2022/01/12 13:41:13;;;;;;;39.78;16.15;;;6.40;89.70;;;;;;4882220;29;20050;-66
2022/01/12 13:43:41;;;;;;;31.13;13.15;;;6.40;89.50;;;;;;4899026;29;20031;-68
2022/01/12 13:46:13;;;;;;;36.10;14.73;;;6.40;89.60;;;;;;4892987;29;20100;-68
2022/01/12 13:48:44;;;;;;;36.17;15.85;;;6.40;89.80;;;;;;4900381;29;20032;-63
2022/01/12 13:51:12;;;;;;;34.08;16.02;;;6.40;90.00;;;;;;4901252;29;20909;-66
2022/01/12 13:53:40;;;;;;;36.85;15.95;;;6.40;89.90;;;;;;4905405;29;20035;-66
2022/01/12 13:56:08;;;;;;;31.42;13.55;;;6.40;90.00;;;;;;4905389;29;20059;-64
2022/01/12 13:58:36;;;;;;;34.38;14.48;;;6.40;90.00;;;;;;4893907;29;20118;-65
2022/01/12 14:01:11;;;;;;;32.63;13.27;;;6.40;90.00;;;;;;4892299;29;20062;-64
2022/01/12 14:03:45;;;;;;;30.17;14.18;;;6.40;90.00;;;;;;4892227;29;20476;-64
2022/01/12 14:06:15;;;;;;;33.50;15.27;;;6.40;90.10;;;;;;4894598;29;20036;-65
2022/01/12 14:08:55;;;;;;;35.45;16.40;;;6.40;90.20;;;;;;4895150;29;20039;-64
2022/01/12 14:11:30;;;;;;;37.63;15.35;;;6.40;90.20;;;;;;4893924;29;20503;-64
2022/01/12 14:13:59;;;;;;;33.40;15.00;;;6.40;90.20;;;;;;4887109;29;20040;-64
2022/01/12 14:16:30;;;;;;;49.50;22.10;;;6.40;90.30;;;;;;4888319;29;20202;-65